Time;durP1;ratioP1;P1;durP2;ratioP2;P2;SDS_P1;SDS_P2;PMS_P1;PMS_P2;Temp;Humidity;BMP_temperature;BMP_pressure;BME280_temperature;BME280_humidity;BME280_pressure;Samples;Min_cycle;Max_cycle;Signal;HPM_P1;HPM_P2
2021/11/08 00:02:28;;;;;;;18.00;6.10;;;;;;;;;;5095605;28;20282;-71
2021/11/08 00:04:55;;;;;;;19.35;6.00;;;;;;;;;;5095722;28;20237;-71
2021/11/08 00:07:23;;;;;;;11.40;5.40;;;;;;;;;;5095341;28;20282;-71
2021/11/08 00:09:50;;;;;;;16.23;5.78;;;;;;;;;;5095245;28;20367;-70
2021/11/08 00:12:20;;;;;;;17.63;5.32;;;;;;;;;;5095258;28;20193;-71
2021/11/08 00:14:48;;;;;;;12.00;4.50;;;;;;;;;;5095186;28;20228;-71
2021/11/08 00:17:23;;;;;;;10.45;4.97;;;;;;;;;;5095162;28;20372;-72
2021/11/08 00:20:03;;;;;;;21.65;5.22;;;;;;;;;;5095716;28;20190;-71
2021/11/08 00:22:30;;;;;;;7.40;4.07;;;;;;;;;;5096036;28;20194;-71
2021/11/08 00:24:57;;;;;;;15.45;5.32;;;;;;;;;;5095107;28;20221;-71
2021/11/08 00:27:24;;;;;;;20.77;4.93;;;;;;;;;;5094999;28;20202;-71
2021/11/08 00:29:51;;;;;;;15.25;4.97;;;;;;;;;;5094517;28;20227;-70
2021/11/08 00:32:19;;;;;;;32.03;5.35;;;;;;;;;;5094830;28;20199;-71
2021/11/08 00:34:46;;;;;;;11.70;4.95;;;;;;;;;;5095228;28;20201;-71
2021/11/08 00:37:15;;;;;;;16.55;4.22;;;;;;;;;;5094746;28;20191;-71
2021/11/08 00:39:42;;;;;;;15.48;5.63;;;;;;;;;;5095088;28;20205;-71
2021/11/08 00:42:09;;;;;;;17.05;5.53;;;;;;;;;;5094406;28;20191;-71
2021/11/08 00:44:37;;;;;;;20.75;6.13;;;;;;;;;;5095428;28;20208;-71
2021/11/08 00:47:07;;;;;;;15.70;5.47;;;;;;;;;;5094488;28;20199;-71
2021/11/08 00:49:36;;;;;;;23.65;5.35;;;;;;;;;;5098712;28;20206;-75
2021/11/08 00:52:03;;;;;;;17.33;5.30;;;;;;;;;;5094427;28;20206;-71
2021/11/08 00:54:32;;;;;;;16.40;5.45;;;;;;;;;;5094929;28;20624;-70
2021/11/08 00:57:00;;;;;;;15.60;5.75;;;;;;;;;;5094771;28;20197;-71
2021/11/08 00:59:28;;;;;;;18.67;5.32;;;;;;;;;;5095008;28;20550;-71
2021/11/08 01:01:58;;;;;;;9.85;4.55;;;;;;;;;;5094003;28;20858;-70
2021/11/08 01:04:26;;;;;;;15.85;5.40;;;;;;;;;;5094276;28;20196;-71
2021/11/08 01:06:58;;;;;;;18.92;5.78;;;;;;;;;;5093939;28;20199;-71
2021/11/08 01:09:27;;;;;;;13.80;5.85;;;;;;;;;;5094100;28;20189;-71
2021/11/08 01:11:56;;;;;;;22.23;5.20;;;;;;;;;;5094158;28;20206;-70
2021/11/08 01:14:23;;;;;;;17.77;5.65;;;;;;;;;;5094137;28;20252;-70
2021/11/08 01:16:55;;;;;;;18.25;6.25;;;;;;;;;;5094043;28;20198;-70
2021/11/08 01:19:23;;;;;;;19.92;6.82;;;;;;;;;;5093793;28;20215;-71
2021/11/08 01:21:51;;;;;;;14.63;4.57;;;;;;;;;;5094231;28;20200;-71
2021/11/08 01:24:18;;;;;;;12.32;4.95;;;;;;;;;;5093675;28;20655;-70
2021/11/08 01:26:47;;;;;;;19.27;4.80;;;;;;;;;;5094143;28;20199;-70
2021/11/08 01:29:16;;;;;;;16.85;5.43;;;;;;;;;;5093905;28;20207;-70
2021/11/08 01:31:44;;;;;;;14.35;4.78;;;;;;;;;;5093475;28;20657;-71
2021/11/08 01:34:11;;;;;;;14.65;5.25;;;;;;;;;;5093558;28;20281;-70
2021/11/08 01:36:41;;;;;;;19.33;6.13;;;;;;;;;;5093910;28;20203;-70
2021/11/08 01:39:17;;;;;;;27.60;6.63;;;;;;;;;;5093802;28;20200;-70
2021/11/08 01:41:46;;;;;;;16.42;6.90;;;;;;;;;;5093517;28;20182;-70
2021/11/08 01:44:14;;;;;;;20.42;4.95;;;;;;;;;;5093708;28;20190;-71
2021/11/08 01:46:42;;;;;;;11.75;4.40;;;;;;;;;;5093740;28;20230;-71
2021/11/08 01:49:10;;;;;;;17.30;5.60;;;;;;;;;;5093386;28;20657;-71
2021/11/08 01:51:37;;;;;;;16.88;4.82;;;;;;;;;;5093352;28;20234;-71
2021/11/08 01:54:06;;;;;;;15.30;4.70;;;;;;;;;;5093934;28;20627;-71
2021/11/08 01:56:33;;;;;;;18.80;5.00;;;;;;;;;;5093612;28;20250;-71
2021/11/08 01:59:00;;;;;;;17.30;5.90;;;;;;;;;;5093603;28;20283;-70
2021/11/08 02:01:28;;;;;;;25.52;5.78;;;;;;;;;;5093245;28;20199;-71
2021/11/08 02:03:56;;;;;;;16.23;5.20;;;;;;;;;;5093255;28;20201;-71
2021/11/08 02:06:24;;;;;;;23.08;7.07;;;;;;;;;;5093538;28;20314;-71
2021/11/08 02:08:51;;;;;;;13.27;5.95;;;;;;;;;;5093187;28;20201;-71
2021/11/08 02:11:20;;;;;;;15.95;5.40;;;;;;;;;;5093329;28;20220;-71
2021/11/08 02:13:47;;;;;;;13.32;6.10;;;;;;;;;;5093503;28;20199;-71
2021/11/08 02:16:15;;;;;;;19.27;5.30;;;;;;;;;;5093312;28;20287;-71
2021/11/08 02:18:43;;;;;;;18.17;5.75;;;;;;;;;;5093453;28;20280;-70
2021/11/08 02:21:12;;;;;;;13.50;6.05;;;;;;;;;;5096045;28;20190;-71
2021/11/08 02:23:40;;;;;;;20.45;6.65;;;;;;;;;;5097326;28;20244;-71
2021/11/08 02:26:12;;;;;;;21.15;7.38;;;;;;;;;;5097519;28;20196;-71
2021/11/08 02:28:40;;;;;;;12.57;5.40;;;;;;;;;;5097026;28;20717;-71
2021/11/08 02:31:09;;;;;;;20.55;6.55;;;;;;;;;;5097358;28;20219;-71
2021/11/08 02:33:36;;;;;;;22.25;6.60;;;;;;;;;;5097145;28;20199;-71
2021/11/08 02:36:03;;;;;;;17.15;5.45;;;;;;;;;;5097917;28;20197;-72
2021/11/08 02:38:36;;;;;;;19.92;5.75;;;;;;;;;;5097781;28;20191;-71
2021/11/08 02:41:03;;;;;;;13.05;5.20;;;;;;;;;;5097866;28;20584;-71
2021/11/08 02:43:31;;;;;;;17.50;6.20;;;;;;;;;;5096684;28;20197;-71
2021/11/08 02:46:05;;;;;;;16.08;6.22;;;;;;;;;;5096933;28;20191;-70
2021/11/08 02:48:33;;;;;;;12.25;5.53;;;;;;;;;;5097486;28;20195;-70
2021/11/08 02:51:07;;;;;;;17.98;6.45;;;;;;;;;;5096555;28;20315;-71
2021/11/08 02:53:38;;;;;;;12.70;5.40;;;;;;;;;;5096774;28;20317;-71
2021/11/08 02:56:06;;;;;;;16.00;6.05;;;;;;;;;;5096497;28;20179;-71
2021/11/08 02:58:33;;;;;;;21.50;5.70;;;;;;;;;;5097028;28;20269;-71
2021/11/08 03:01:02;;;;;;;13.50;5.05;;;;;;;;;;5096469;28;20672;-71
2021/11/08 03:03:34;;;;;;;20.70;6.78;;;;;;;;;;5097100;28;20196;-71
2021/11/08 03:06:08;;;;;;;16.58;7.05;;;;;;;;;;5096375;28;20643;-71
2021/11/08 03:08:37;;;;;;;23.35;5.63;;;;;;;;;;5096982;28;20187;-71
2021/11/08 03:11:05;;;;;;;19.48;6.18;;;;;;;;;;5096438;28;20219;-71
2021/11/08 03:13:34;;;;;;;26.42;6.93;;;;;;;;;;5096083;28;20204;-71
2021/11/08 03:16:08;;;;;;;16.83;6.55;;;;;;;;;;5096070;28;20286;-71
2021/11/08 03:18:39;;;;;;;16.65;6.82;;;;;;;;;;5097232;28;20524;-71
2021/11/08 03:21:14;;;;;;;25.55;6.22;;;;;;;;;;5096950;28;20608;-71
2021/11/08 03:23:44;;;;;;;16.60;7.22;;;;;;;;;;5096395;28;20187;-71
2021/11/08 03:26:17;;;;;;;12.60;6.50;;;;;;;;;;5096324;28;20204;-71
2021/11/08 03:28:45;;;;;;;16.92;5.65;;;;;;;;;;5096414;28;20195;-71
2021/11/08 03:31:14;;;;;;;23.10;6.13;;;;;;;;;;5095637;28;20225;-71
2021/11/08 03:33:43;;;;;;;16.17;5.88;;;;;;;;;;5095984;28;20189;-71
2021/11/08 03:36:11;;;;;;;18.40;7.32;;;;;;;;;;5095683;28;20191;-71
2021/11/08 03:38:39;;;;;;;18.35;5.63;;;;;;;;;;5096474;28;20200;-71
2021/11/08 03:41:08;;;;;;;16.00;6.40;;;;;;;;;;5095641;28;20205;-70
2021/11/08 03:43:36;;;;;;;21.92;6.30;;;;;;;;;;5095855;28;20195;-71
2021/11/08 03:46:04;;;;;;;22.95;6.35;;;;;;;;;;5096216;28;20194;-71
2021/11/08 03:48:31;;;;;;;19.65;6.75;;;;;;;;;;5095785;28;20195;-72
2021/11/08 03:50:58;;;;;;;24.83;7.50;;;;;;;;;;5095251;28;20715;-72
2021/11/08 03:53:26;;;;;;;25.90;7.63;;;;;;;;;;5095659;28;20226;-72
2021/11/08 03:55:53;;;;;;;18.70;9.00;;;;;;;;;;5095609;28;20197;-71
2021/11/08 03:58:22;;;;;;;19.20;6.97;;;;;;;;;;5095774;28;20204;-72
2021/11/08 04:00:50;;;;;;;17.30;7.80;;;;;;;;;;5095523;28;20195;-71
2021/11/08 04:03:17;;;;;;;17.13;6.65;;;;;;;;;;5095744;28;20203;-71
2021/11/08 04:05:44;;;;;;;18.00;7.60;;;;;;;;;;5095665;28;20547;-72
2021/11/08 04:08:16;;;;;;;22.48;8.10;;;;;;;;;;5095377;28;20195;-71
2021/11/08 04:10:43;;;;;;;15.65;6.45;;;;;;;;;;5095046;28;20212;-71
2021/11/08 04:13:11;;;;;;;28.55;10.15;;;;;;;;;;5094961;28;20679;-71
2021/11/08 04:15:41;;;;;;;24.77;9.48;;;;;;;;;;5094912;28;20198;-71
2021/11/08 04:18:09;;;;;;;19.02;7.85;;;;;;;;;;5094891;28;20201;-71
2021/11/08 04:20:38;;;;;;;21.35;8.68;;;;;;;;;;5095286;28;20218;-71
2021/11/08 04:23:05;;;;;;;19.20;8.20;;;;;;;;;;5095538;28;20197;-72
2021/11/08 04:25:32;;;;;;;17.90;7.05;;;;;;;;;;5094752;28;20190;-71
2021/11/08 04:27:59;;;;;;;14.52;7.00;;;;;;;;;;5095218;28;20202;-71
2021/11/08 04:30:30;;;;;;;25.85;9.15;;;;;;;;;;5094843;28;20683;-71
2021/11/08 04:33:21;;;;;;;22.83;8.35;;;;;;;;;;5095058;28;20194;-72
2021/11/08 04:36:21;;;;;;;17.50;8.15;;;;;;;;;;5094852;28;20195;-71
2021/11/08 04:38:58;;;;;;;19.95;8.63;;;;;;;;;;5094748;28;20257;-71
2021/11/08 04:41:34;;;;;;;20.92;8.60;;;;;;;;;;5095560;28;20278;-71
2021/11/08 04:44:22;;;;;;;23.38;8.50;;;;;;;;;;5094717;28;20188;-70
2021/11/08 04:47:10;;;;;;;20.20;9.25;;;;;;;;;;5094392;28;20184;-70
2021/11/08 04:49:47;;;;;;;23.05;9.18;;;;;;;;;;5095009;28;20188;-71
2021/11/08 04:52:23;;;;;;;25.10;9.18;;;;;;;;;;5094035;28;20255;-71
2021/11/08 04:54:57;;;;;;;20.38;8.35;;;;;;;;;;5094852;28;20190;-70
2021/11/08 05:22:19;;;;;;;21.60;9.80;;;;;;;;;;5053664;28;20195;-69
2021/11/08 05:30:16;;;;;;;21.73;9.10;;;;;;;;;;5053763;28;20266;-70
2021/11/08 05:32:44;;;;;;;19.67;9.57;;;;;;;;;;5053014;28;20221;-70
2021/11/08 05:35:13;;;;;;;19.60;9.90;;;;;;;;;;5053539;28;20198;-70
2021/11/08 05:37:43;;;;;;;22.30;9.52;;;;;;;;;;5067068;28;20599;-69
2021/11/08 05:40:12;;;;;;;23.70;12.18;;;;;;;;;;5073044;28;20723;-69
2021/11/08 05:42:40;;;;;;;26.70;11.90;;;;;;;;;;5073259;28;20208;-69
2021/11/08 05:45:09;;;;;;;24.30;11.10;;;;;;;;;;5073794;28;20285;-70
2021/11/08 05:47:36;;;;;;;35.35;13.70;;;;;;;;;;5072996;28;20199;-69
2021/11/08 05:50:04;;;;;;;37.95;11.73;;;;;;;;;;5073589;28;20203;-69
2021/11/08 05:52:31;;;;;;;22.15;9.13;;;;;;;;;;5072804;28;20334;-69
2021/11/08 05:55:00;;;;;;;37.65;13.35;;;;;;;;;;5076708;28;20218;-69
2021/11/08 05:57:42;;;;;;;21.40;12.68;;;;;;;;;;5078333;28;20207;-68
2021/11/08 06:49:50;;;;;;;46.00;15.38;;;;;;;;;;5076645;28;20219;-68
2021/11/08 06:52:18;;;;;;;33.42;15.27;;;;;;;;;;5077092;28;20251;-68
2021/11/08 06:54:49;;;;;;;24.65;14.80;;;;;;;;;;5076409;28;20181;-68
2021/11/08 06:57:17;;;;;;;27.98;13.80;;;;;;;;;;5076176;28;20275;-68
2021/11/08 06:59:47;;;;;;;27.58;15.65;;;;;;;;;;5076874;28;20600;-68
2021/11/08 07:02:15;;;;;;;26.27;15.20;;;;;;;;;;5076118;28;20203;-69
2021/11/08 07:04:42;;;;;;;28.90;13.85;;;;;;;;;;5076256;28;20202;-69
2021/11/08 07:07:11;;;;;;;35.97;17.80;;;;;;;;;;5076373;28;20191;-68
2021/11/08 07:09:38;;;;;;;37.30;15.38;;;;;;;;;;5076188;28;20595;-68
2021/11/08 07:12:06;;;;;;;27.63;16.55;;;;;;;;;;5075792;28;20214;-68
2021/11/08 07:14:34;;;;;;;31.70;15.23;;;;;;;;;;5076191;28;20199;-68
2021/11/08 07:17:02;;;;;;;29.70;16.50;;;;;;;;;;5075807;28;20291;-68
2021/11/08 07:19:30;;;;;;;42.92;17.48;;;;;;;;;;5076006;28;20285;-68
2021/11/08 07:21:57;;;;;;;28.25;14.13;;;;;;;;;;5076257;28;20303;-69
2021/11/08 07:24:24;;;;;;;36.63;16.92;;;;;;;;;;5076219;28;20206;-69
2021/11/08 07:26:51;;;;;;;37.78;17.88;;;;;;;;;;5075965;28;20200;-69
2021/11/08 07:29:21;;;;;;;33.88;15.93;;;;;;;;;;5076411;28;20299;-69
2021/11/08 07:31:48;;;;;;;26.85;15.27;;;;;;;;;;5075387;28;20219;-70
2021/11/08 07:34:17;;;;;;;28.38;15.13;;;;;;;;;;5075503;28;20201;-68
2021/11/08 07:36:44;;;;;;;34.00;15.52;;;;;;;;;;5075677;28;20192;-69
2021/11/08 07:39:11;;;;;;;35.15;14.30;;;;;;;;;;5075696;28;20192;-68
2021/11/08 07:41:39;;;;;;;37.20;17.52;;;;;;;;;;5075568;28;20202;-69
2021/11/08 07:44:06;;;;;;;32.08;15.52;;;;;;;;;;5075649;28;20205;-67
2021/11/08 07:46:33;;;;;;;29.05;15.82;;;;;;;;;;5075512;28;20203;-69
2021/11/08 07:49:01;;;;;;;37.38;16.15;;;;;;;;;;5075197;28;20287;-68
2021/11/08 07:51:29;;;;;;;35.22;17.27;;;;;;;;;;5075437;28;20582;-69
2021/11/08 07:53:56;;;;;;;33.00;17.45;;;;;;;;;;5075973;28;20228;-68
2021/11/08 07:56:24;;;;;;;31.25;18.45;;;;;;;;;;5075418;28;20234;-69
2021/11/08 07:58:51;;;;;;;32.83;16.52;;;;;;;;;;5074894;28;20205;-68
2021/11/08 08:01:18;;;;;;;32.05;18.25;;;;;;;;;;5075167;28;20657;-68
2021/11/08 08:03:47;;;;;;;40.10;18.20;;;;;;;;;;5075330;28;20197;-68
2021/11/08 08:06:14;;;;;;;32.65;18.65;;;;;;;;;;5074919;28;20191;-68
2021/11/08 08:08:46;;;;;;;46.72;20.80;;;;;;;;;;5075296;28;20194;-69
2021/11/08 08:11:13;;;;;;;42.05;17.50;;;;;;;;;;5074804;28;20183;-68
2021/11/08 08:13:40;;;;;;;28.40;16.45;;;;;;;;;;5074840;28;20749;-68
2021/11/08 08:16:12;;;;;;;40.95;18.90;;;;;;;;;;5074922;28;20615;-68
2021/11/08 08:18:40;;;;;;;36.45;18.00;;;;;;;;;;5073559;28;20194;-68
2021/11/08 08:21:07;;;;;;;27.92;17.02;;;;;;;;;;5074395;28;20205;-69
2021/11/08 08:23:35;;;;;;;38.42;19.17;;;;;;;;;;5074764;28;20211;-69
2021/11/08 08:26:05;;;;;;;35.38;17.45;;;;;;;;;;5074380;28;20204;-68
2021/11/08 08:28:32;;;;;;;43.38;17.65;;;;;;;;;;5074633;28;20191;-68
2021/11/08 08:30:59;;;;;;;34.10;17.33;;;;;;;;;;5074502;28;20196;-68
2021/11/08 08:33:27;;;;;;;32.10;18.08;;;;;;;;;;5074545;28;20226;-68
2021/11/08 08:35:55;;;;;;;34.17;17.10;;;;;;;;;;5074416;28;20195;-68
2021/11/08 08:38:22;;;;;;;29.38;17.73;;;;;;;;;;5074246;28;20197;-68
2021/11/08 08:40:50;;;;;;;32.17;15.82;;;;;;;;;;5075037;28;20195;-68
2021/11/08 08:43:20;;;;;;;27.98;15.32;;;;;;;;;;5074290;28;20207;-69
2021/11/08 08:45:47;;;;;;;26.38;15.20;;;;;;;;;;5074398;28;20294;-68
2021/11/08 08:48:15;;;;;;;31.05;14.30;;;;;;;;;;5074348;28;20204;-68
2021/11/08 08:50:43;;;;;;;26.02;12.02;;;;;;;;;;5073841;28;20197;-68
2021/11/08 08:53:10;;;;;;;25.95;13.43;;;;;;;;;;5073820;28;20590;-69
2021/11/08 08:55:38;;;;;;;26.17;15.15;;;;;;;;;;5074101;28;20227;-69
2021/11/08 08:58:06;;;;;;;20.13;11.70;;;;;;;;;;5074117;28;20202;-69
2021/11/08 09:00:36;;;;;;;26.73;11.18;;;;;;;;;;5074049;28;20253;-68
2021/11/08 09:03:04;;;;;;;18.65;11.80;;;;;;;;;;5074400;28;20594;-68
2021/11/08 09:05:31;;;;;;;27.92;13.50;;;;;;;;;;5074329;28;20283;-68
2021/11/08 09:07:59;;;;;;;25.08;12.77;;;;;;;;;;5074488;28;20233;-68
2021/11/08 09:10:27;;;;;;;19.67;11.18;;;;;;;;;;5073653;28;20283;-68
2021/11/08 09:12:57;;;;;;;23.98;12.57;;;;;;;;;;5073426;28;20256;-69
2021/11/08 09:15:24;;;;;;;14.63;9.75;;;;;;;;;;5073504;28;20208;-69
2021/11/08 09:17:53;;;;;;;19.88;9.80;;;;;;;;;;5073494;28;20216;-69
2021/11/08 09:20:21;;;;;;;17.05;10.95;;;;;;;;;;5073416;28;20286;-68
2021/11/08 09:22:50;;;;;;;30.25;11.75;;;;;;;;;;5074122;28;20202;-69
2021/11/08 09:25:18;;;;;;;25.08;11.57;;;;;;;;;;5073667;28;20204;-69
2021/11/08 09:27:46;;;;;;;21.27;12.45;;;;;;;;;;5073299;28;20226;-68
2021/11/08 09:30:14;;;;;;;18.77;10.57;;;;;;;;;;5073259;28;20198;-68
2021/11/08 09:32:41;;;;;;;15.43;10.68;;;;;;;;;;5073448;28;20312;-68
2021/11/08 09:35:11;;;;;;;28.70;11.20;;;;;;;;;;5074430;28;20283;-68
2021/11/08 09:37:43;;;;;;;19.40;11.50;;;;;;;;;;5073531;28;20193;-69
2021/11/08 09:40:12;;;;;;;17.37;10.77;;;;;;;;;;5073347;28;20213;-69
2021/11/08 09:42:39;;;;;;;19.52;11.38;;;;;;;;;;5073524;28;20480;-68
2021/11/08 09:45:07;;;;;;;22.30;10.25;;;;;;;;;;5073575;28;20292;-68
2021/11/08 09:47:35;;;;;;;25.95;11.73;;;;;;;;;;5073441;28;20194;-68
2021/11/08 09:50:04;;;;;;;20.98;10.43;;;;;;;;;;5073122;28;20232;-68
2021/11/08 09:52:37;;;;;;;27.20;11.20;;;;;;;;;;5072653;28;20277;-68
2021/11/08 09:55:05;;;;;;;27.08;10.88;;;;;;;;;;5073279;28;20460;-69
2021/11/08 09:57:32;;;;;;;20.80;10.90;;;;;;;;;;5072966;28;20288;-69
2021/11/08 09:59:59;;;;;;;16.92;9.88;;;;;;;;;;5072958;28;20196;-68
2021/11/08 10:02:27;;;;;;;33.35;10.57;;;;;;;;;;5073268;28;20208;-68
2021/11/08 10:04:54;;;;;;;26.05;11.63;;;;;;;;;;5073494;28;20201;-69
2021/11/08 10:07:21;;;;;;;29.10;11.10;;;;;;;;;;5073323;28;20194;-68
2021/11/08 10:09:50;;;;;;;17.98;8.70;;;;;;;;;;5072890;28;20449;-69
2021/11/08 10:12:17;;;;;;;20.38;10.93;;;;;;;;;;5073645;28;20254;-69
2021/11/08 10:14:44;;;;;;;10.60;8.23;;;;;;;;;;5073442;28;20190;-69
2021/11/08 10:17:11;;;;;;;20.77;10.57;;;;;;;;;;5073162;28;21000;-68
2021/11/08 10:19:41;;;;;;;24.77;10.25;;;;;;;;;;5073145;28;20441;-68
2021/11/08 10:22:08;;;;;;;19.50;10.07;;;;;;;;;;5072883;28;20205;-69
2021/11/08 10:24:37;;;;;;;23.10;11.10;;;;;;;;;;5072801;28;20928;-69
2021/11/08 10:27:07;;;;;;;26.05;12.05;;;;;;;;;;5073083;28;20292;-69
2021/11/08 10:29:35;;;;;;;27.25;12.88;;;;;;;;;;5073021;28;20285;-70
2021/11/08 10:32:03;;;;;;;18.23;9.05;;;;;;;;;;5073037;28;20609;-69
2021/11/08 10:34:31;;;;;;;27.90;11.00;;;;;;;;;;5073551;28;20558;-69
2021/11/08 10:37:01;;;;;;;19.75;11.32;;;;;;;;;;5072665;28;20663;-69
2021/11/08 10:39:29;;;;;;;25.35;11.40;;;;;;;;;;5073324;28;20539;-69
2021/11/08 10:41:57;;;;;;;30.47;11.10;;;;;;;;;;5074879;28;20194;-69
2021/11/08 10:44:26;;;;;;;24.27;10.20;;;;;;;;;;5077569;28;20432;-68
2021/11/08 10:46:57;;;;;;;24.33;11.70;;;;;;;;;;5076387;28;20534;-69
2021/11/08 10:49:25;;;;;;;22.67;9.70;;;;;;;;;;5076709;28;20439;-69
2021/11/08 10:51:53;;;;;;;37.47;11.38;;;;;;;;;;5076702;28;20449;-69
2021/11/08 10:54:22;;;;;;;28.40;10.37;;;;;;;;;;5076456;28;20312;-68
2021/11/08 10:56:54;;;;;;;21.02;10.57;;;;;;;;;;5076219;28;20444;-69
2021/11/08 10:59:23;;;;;;;24.83;9.40;;;;;;;;;;5076954;28;20222;-69
2021/11/08 11:01:53;;;;;;;16.93;9.87;;;;;;;;;;5076258;28;20552;-68
2021/11/08 11:04:29;;;;;;;17.03;9.17;;;;;;;;;;5076488;28;20459;-69
2021/11/08 11:06:57;;;;;;;23.33;10.27;;;;;;;;;;5076541;28;20523;-69
2021/11/08 11:09:25;;;;;;;16.67;8.00;;;;;;;;;;5076491;28;20440;-69
2021/11/08 11:12:05;;;;;;;28.90;8.87;;;;;;;;;;5075969;28;20993;-68
2021/11/08 11:14:34;;;;;;;14.33;7.93;;;;;;;;;;5076270;28;20495;-68
2021/11/08 11:17:07;;;;;;;17.87;7.63;;;;;;;;;;5075825;28;20440;-69
2021/11/08 11:19:34;;;;;;;16.30;7.70;;;;;;;;;;5076235;28;20432;-69
2021/11/08 11:22:04;;;;;;;15.90;7.60;;;;;;;;;;5076535;28;20445;-69
2021/11/08 11:24:32;;;;;;;15.70;7.40;;;;;;;;;;5076014;28;20472;-69
2021/11/08 11:27:00;;;;;;;16.70;8.20;;;;;;;;;;5076463;28;20926;-69
2021/11/08 11:29:29;;;;;;;16.13;6.97;;;;;;;;;;5075936;28;20498;-69
2021/11/08 11:31:56;;;;;;;18.33;8.25;;;;;;;;;;5075833;28;20440;-68
2021/11/08 11:34:25;;;;;;;19.57;7.60;;;;;;;;;;5076013;28;20310;-68
2021/11/08 11:36:52;;;;;;;22.07;8.53;;;;;;;;;;5075737;28;20444;-68
2021/11/08 11:39:20;;;;;;;24.67;7.40;;;;;;;;;;5075384;28;20532;-69
2021/11/08 11:41:48;;;;;;;12.70;5.80;;;;;;;;;;5075977;28;20437;-69
2021/11/08 11:44:18;;;;;;;19.57;6.90;;;;;;;;;;5075591;28;20451;-69
2021/11/08 11:46:46;;;;;;;17.30;5.63;;;;;;;;;;5075653;28;20446;-70
2021/11/08 11:49:14;;;;;;;19.77;6.87;;;;;;;;;;5075522;28;20435;-69
2021/11/08 11:51:44;;;;;;;17.63;5.50;;;;;;;;;;5075053;28;20444;-68
2021/11/08 11:54:12;;;;;;;14.73;6.57;;;;;;;;;;5075577;28;20491;-69
2021/11/08 11:56:40;;;;;;;11.10;4.10;;;;;;;;;;5075293;28;20480;-68
2021/11/08 11:59:08;;;;;;;16.03;5.50;;;;;;;;;;5075258;28;20531;-68
2021/11/08 12:01:36;;;;;;;15.53;5.60;;;;;;;;;;5074886;28;20956;-69
2021/11/08 12:04:03;;;;;;;10.40;5.10;;;;;;;;;;5074867;28;20441;-69
2021/11/08 12:06:32;;;;;;;14.13;5.27;;;;;;;;;;5075432;28;20439;-69
2021/11/08 12:09:01;;;;;;;10.57;4.67;;;;;;;;;;5075054;28;20458;-69
2021/11/08 12:11:29;;;;;;;10.17;5.30;;;;;;;;;;5074999;28;20476;-69
2021/11/08 12:13:59;;;;;;;12.30;4.87;;;;;;;;;;5074947;28;20539;-69
2021/11/08 12:16:28;;;;;;;8.63;4.20;;;;;;;;;;5074865;28;20436;-69
2021/11/08 12:18:57;;;;;;;13.67;5.40;;;;;;;;;;5074484;28;20530;-69
2021/11/08 12:21:26;;;;;;;17.70;5.20;;;;;;;;;;5074959;28;20444;-69
2021/11/08 12:23:53;;;;;;;18.97;5.30;;;;;;;;;;5074499;28;20452;-69
2021/11/08 12:26:23;;;;;;;8.60;4.30;;;;;;;;;;5074793;28;20859;-69
2021/11/08 12:28:51;;;;;;;12.43;5.67;;;;;;;;;;5074620;28;20516;-68
2021/11/08 12:31:23;;;;;;;19.40;5.90;;;;;;;;;;5074645;28;20433;-68
2021/11/08 12:34:01;;;;;;;16.60;5.20;;;;;;;;;;5074638;28;20476;-69
2021/11/08 12:36:28;;;;;;;11.73;3.97;;;;;;;;;;5074227;28;20805;-70
2021/11/08 12:38:58;;;;;;;11.73;5.20;;;;;;;;;;5074504;28;20436;-68
2021/11/08 12:41:32;;;;;;;13.90;6.07;;;;;;;;;;5074533;28;20444;-69
2021/11/08 12:44:03;;;;;;;15.13;4.33;;;;;;;;;;5074152;28;20918;-69
2021/11/08 12:46:34;;;;;;;11.50;4.73;;;;;;;;;;5074512;28;20437;-69
2021/11/08 12:49:06;;;;;;;18.83;4.90;;;;;;;;;;5074061;28;20464;-69
2021/11/08 12:51:33;;;;;;;19.77;6.07;;;;;;;;;;5074749;28;20448;-68
2021/11/08 12:54:04;;;;;;;12.40;4.73;;;;;;;;;;5074693;28;20579;-69
2021/11/08 12:56:40;;;;;;;21.13;5.13;;;;;;;;;;5073847;28;20441;-69
2021/11/08 12:59:13;;;;;;;18.73;6.40;;;;;;;;;;5074268;28;20429;-69
2021/11/08 13:01:41;;;;;;;18.13;4.70;;;;;;;;;;5073784;28;20432;-69
2021/11/08 13:04:11;;;;;;;13.50;4.77;;;;;;;;;;5074031;28;20447;-68
2021/11/08 13:06:38;;;;;;;15.93;5.47;;;;;;;;;;5073971;28;20523;-67
2021/11/08 13:09:07;;;;;;;7.70;3.47;;;;;;;;;;5074345;28;20436;-72
2021/11/08 13:11:40;;;;;;;12.23;4.50;;;;;;;;;;5074081;28;20448;-71
2021/11/08 13:14:07;;;;;;;14.97;3.30;;;;;;;;;;5073550;28;20483;-71
2021/11/08 13:16:36;;;;;;;13.60;4.40;;;;;;;;;;5073454;28;20441;-72
2021/11/08 13:19:05;;;;;;;12.13;4.60;;;;;;;;;;5074174;28;20528;-71
2021/11/08 13:21:32;;;;;;;43.77;5.33;;;;;;;;;;5074085;28;20458;-69
2021/11/08 13:23:59;;;;;;;15.73;4.37;;;;;;;;;;5073762;28;20492;-71
2021/11/08 13:26:27;;;;;;;12.60;4.20;;;;;;;;;;5073910;28;20534;-71
2021/11/08 13:28:55;;;;;;;13.17;4.53;;;;;;;;;;5071139;28;20445;-70
2021/11/08 13:31:23;;;;;;;12.93;4.20;;;;;;;;;;5073013;28;20436;-70
2021/11/08 13:33:52;;;;;;;19.30;4.73;;;;;;;;;;5073024;28;20480;-71
2021/11/08 13:36:20;;;;;;;15.63;5.10;;;;;;;;;;5072936;28;21025;-71
2021/11/08 13:38:49;;;;;;;9.50;4.20;;;;;;;;;;5073193;28;20448;-71
2021/11/08 13:41:17;;;;;;;13.77;4.70;;;;;;;;;;5072905;28;20946;-70
2021/11/08 13:43:46;;;;;;;12.50;4.17;;;;;;;;;;5072888;28;20445;-70
2021/11/08 13:46:16;;;;;;;11.00;4.00;;;;;;;;;;5073386;28;20515;-70
2021/11/08 13:48:44;;;;;;;16.33;4.57;;;;;;;;;;5072927;28;20443;-70
2021/11/08 13:51:29;;;;;;;13.97;4.67;;;;;;;;;;5073533;28;20449;-70
2021/11/08 13:53:58;;;;;;;24.03;4.30;;;;;;;;;;5073428;28;20575;-70
2021/11/08 13:56:31;;;;;;;19.07;3.53;;;;;;;;;;5072730;28;20440;-70
2021/11/08 13:58:59;;;;;;;12.80;3.87;;;;;;;;;;5070984;28;20464;-70
2021/11/08 14:01:31;;;;;;;9.07;3.70;;;;;;;;;;5073041;28;20447;-70
2021/11/08 14:03:58;;;;;;;15.13;3.43;;;;;;;;;;5072669;28;20437;-69
2021/11/08 14:06:30;;;;;;;10.80;4.80;;;;;;;;;;5073487;28;20436;-70
2021/11/08 14:08:58;;;;;;;15.50;4.30;;;;;;;;;;5071913;28;20439;-70
2021/11/08 14:11:27;;;;;;;8.57;3.87;;;;;;;;;;5072107;28;20436;-70
2021/11/08 14:13:54;;;;;;;15.00;3.70;;;;;;;;;;5072140;28;20987;-72
2021/11/08 14:16:21;;;;;;;11.37;3.43;;;;;;;;;;5075055;28;20452;-70
2021/11/08 14:18:54;;;;;;;13.03;3.97;;;;;;;;;;5076868;28;20945;-70
2021/11/08 14:21:22;;;;;;;12.63;3.10;;;;;;;;;;5076350;28;20451;-70
2021/11/08 14:23:55;;;;;;;9.60;3.60;;;;;;;;;;5076549;28;20526;-71
2021/11/08 14:26:23;;;;;;;12.40;3.97;;;;;;;;;;5077103;28;20891;-70
2021/11/08 14:28:50;;;;;;;12.20;3.90;;;;;;;;;;5076148;28;20893;-70
2021/11/08 14:31:19;;;;;;;7.83;3.30;;;;;;;;;;5075238;28;20527;-70
2021/11/08 14:33:46;;;;;;;7.77;3.53;;;;;;;;;;5076562;28;20475;-69
2021/11/08 14:36:16;;;;;;;10.73;3.30;;;;;;;;;;5076886;28;20460;-69
2021/11/08 14:38:46;;;;;;;15.23;4.50;;;;;;;;;;5076698;28;20930;-70
2021/11/08 14:41:13;;;;;;;13.50;3.40;;;;;;;;;;5076485;28;20445;-70
2021/11/08 14:43:40;;;;;;;9.23;3.37;;;;;;;;;;5076214;28;20459;-71
2021/11/08 14:46:08;;;;;;;13.47;3.53;;;;;;;;;;5076741;28;20435;-70
2021/11/08 14:48:36;;;;;;;13.40;3.23;;;;;;;;;;5076486;28;20931;-70
2021/11/08 14:51:07;;;;;;;16.93;3.03;;;;;;;;;;5076329;28;20447;-70
2021/11/08 14:53:37;;;;;;;11.43;3.43;;;;;;;;;;5076040;28;20826;-70
2021/11/08 14:56:04;;;;;;;7.43;3.70;;;;;;;;;;5076062;28;20503;-70
2021/11/08 14:58:31;;;;;;;13.50;3.50;;;;;;;;;;5076115;28;20531;-70
2021/11/08 15:00:59;;;;;;;15.20;4.00;;;;;;;;;;5074465;28;20440;-70
2021/11/08 15:03:26;;;;;;;15.97;3.90;;;;;;;;;;5076165;28;20479;-70
2021/11/08 15:05:53;;;;;;;10.47;3.40;;;;;;;;;;5076474;28;20486;-70
2021/11/08 15:08:22;;;;;;;21.97;7.00;;;;;;;;;;5076067;28;20448;-70
2021/11/08 15:10:52;;;;;;;14.53;3.50;;;;;;;;;;5076052;28;20475;-70
2021/11/08 15:13:23;;;;;;;13.40;3.50;;;;;;;;;;5075192;28;20513;-70
2021/11/08 15:15:51;;;;;;;10.50;3.13;;;;;;;;;;5074592;28;20475;-69
2021/11/08 15:18:21;;;;;;;14.50;4.47;;;;;;;;;;5074626;28;20932;-70
2021/11/08 15:20:50;;;;;;;9.50;3.80;;;;;;;;;;5075769;28;20539;-70
2021/11/08 15:23:20;;;;;;;14.07;3.63;;;;;;;;;;5076020;28;20455;-70
2021/11/08 15:25:50;;;;;;;17.30;3.80;;;;;;;;;;5075772;28;20444;-70
2021/11/08 15:28:19;;;;;;;12.73;5.60;;;;;;;;;;5074653;28;20444;-70
2021/11/08 15:30:49;;;;;;;17.07;5.17;;;;;;;;;;5074474;28;20502;-70
2021/11/08 15:33:17;;;;;;;13.87;3.93;;;;;;;;;;5075826;28;20545;-69
2021/11/08 15:35:49;;;;;;;14.83;3.83;;;;;;;;;;5075434;28;20490;-70
2021/11/08 15:38:18;;;;;;;8.60;3.60;;;;;;;;;;5075257;28;21001;-70
2021/11/08 15:40:46;;;;;;;15.13;4.00;;;;;;;;;;5075414;28;20516;-70
2021/11/08 15:43:14;;;;;;;8.13;3.43;;;;;;;;;;5075237;28;20440;-70
2021/11/08 15:45:44;;;;;;;17.10;3.57;;;;;;;;;;5074975;28;20528;-70
2021/11/08 15:48:12;;;;;;;9.20;3.60;;;;;;;;;;5075367;28;20428;-69
2021/11/08 15:50:40;;;;;;;9.60;4.40;;;;;;;;;;5075337;28;20458;-70
2021/11/08 15:53:07;;;;;;;21.30;5.00;;;;;;;;;;5075534;28;20529;-71
2021/11/08 15:55:38;;;;;;;14.30;4.40;;;;;;;;;;5075413;28;20562;-70
2021/11/08 15:58:05;;;;;;;10.97;4.20;;;;;;;;;;5075888;28;20428;-70